Time;durP1;ratioP1;P1;durP2;ratioP2;P2;SDS_P1;SDS_P2;PMS_P1;PMS_P2;Temp;Humidity;BMP_temperature;BMP_pressure;BME280_temperature;BME280_humidity;BME280_pressure;Samples;Min_cycle;Max_cycle;Signal;HPM_P1;HPM_P2
2022/05/26 00:01:12;;;;;;;;;1.00;1.00;;;;;17.96;53.73;101886.31;5079642;27;45426;-53
2022/05/26 00:03:40;;;;;;;;;1.50;1.25;;;;;17.94;54.36;101882.91;5079507;28;45558;-50
2022/05/26 00:06:07;;;;;;;;;1.75;1.00;;;;;17.91;55.03;101883.28;5079669;27;45474;-53
2022/05/26 00:08:34;;;;;;;;;0.00;0.00;;;;;17.91;54.77;101883.28;5079977;28;45305;-53
2022/05/26 00:11:00;;;;;;;;;2.00;0.50;;;;;17.91;54.57;101891.34;5079386;27;46402;-52
2022/05/26 00:13:26;;;;;;;;;0.50;0.50;;;;;17.89;54.84;101886.13;5079672;27;45340;-55
2022/05/26 00:15:52;;;;;;;;;2.00;1.00;;;;;17.85;54.87;101890.16;5079536;27;45313;-52
2022/05/26 00:18:18;;;;;;;;;2.00;1.00;;;;;17.87;54.66;101884.63;5079861;27;45245;-53
2022/05/26 00:20:44;;;;;;;;;1.00;1.00;;;;;17.85;55.59;101884.75;5079355;27;46824;-53
2022/05/26 00:23:10;;;;;;;;;0.00;0.00;;;;;17.86;55.64;101890.97;5079344;27;45418;-55
2022/05/26 00:25:36;;;;;;;;;1.00;1.00;;;;;17.84;55.14;101887.63;5079559;27;45316;-54
2022/05/26 00:28:01;;;;;;;;;3.00;1.75;;;;;17.81;55.73;101890.66;5079654;28;45534;-54
2022/05/26 00:30:27;;;;;;;;;1.50;1.00;;;;;17.78;53.94;101883.78;5079269;28;46255;-52
2022/05/26 00:32:52;;;;;;;;;1.00;1.00;;;;;17.75;55.25;101888.63;5079362;28;45378;-54
2022/05/26 00:35:18;;;;;;;;;4.33;2.67;;;;;17.73;56.16;101885.22;5079326;27;45360;-53
2022/05/26 00:37:44;;;;;;;;;1.00;1.00;;;;;17.55;55.12;101863.84;5079476;28;45301;-54
2022/05/26 00:40:11;;;;;;;;;1.00;0.25;;;;;17.51;55.39;101860.63;5079053;27;45454;-50
2022/05/26 00:42:36;;;;;;;;;1.00;0.00;;;;;17.64;54.90;101887.91;5079095;27;45482;-53
2022/05/26 00:45:03;;;;;;;;;1.25;0.00;;;;;17.60;55.48;101888.41;5079266;28;45841;-54
2022/05/26 00:47:33;;;;;;;;;1.00;1.00;;;;;17.58;55.53;101882.34;5079213;27;45430;-52
2022/05/26 00:50:19;;;;;;;;;0.00;0.00;;;;;17.45;54.32;101861.31;5079117;28;45227;-54
2022/05/26 00:52:54;;;;;;;;;0.00;0.00;;;;;17.42;55.01;101873.22;5079139;27;45287;-53
2022/05/26 00:55:25;;;;;;;;;0.00;0.00;;;;;17.53;55.30;101884.66;5079090;27;45413;-52
2022/05/26 00:57:54;;;;;;;;;3.00;1.00;;;;;17.51;54.90;101898.28;5079212;27;45374;-53
2022/05/26 01:00:23;;;;;;;;;1.00;1.00;;;;;17.46;55.60;101892.56;5078109;27;46151;-52
2022/05/26 01:02:59;;;;;;;;;2.00;0.00;;;;;17.43;55.38;101890.19;5078339;27;45424;-52
2022/05/26 01:05:30;;;;;;;;;0.00;0.00;;;;;17.43;55.71;101895.59;5079011;27;45381;-54
2022/05/26 01:07:57;;;;;;;;;2.00;0.00;;;;;17.40;55.37;101895.91;5079011;28;45408;-54
2022/05/26 01:10:23;;;;;;;;;0.00;0.00;;;;;17.41;55.86;101897.59;5078694;27;46349;-53
2022/05/26 01:12:48;;;;;;;;;0.50;0.00;;;;;17.38;55.44;101893.38;5078693;27;45375;-52
2022/05/26 01:15:17;;;;;;;;;0.33;0.33;;;;;17.31;55.58;101886.97;5078722;28;45631;-53
2022/05/26 01:17:50;;;;;;;;;2.00;0.25;;;;;17.32;55.33;101903.94;5079013;27;45328;-52
2022/05/26 01:20:59;;;;;;;;;0.00;0.00;;;;;17.28;55.66;101903.44;5078328;27;45347;-54
2022/05/26 01:23:39;;;;;;;;;1.00;0.00;;;;;17.25;55.46;101900.22;5078595;27;45293;-53
2022/05/26 01:26:43;;;;;;;;;1.33;0.00;;;;;17.25;55.82;101911.00;5078562;27;45367;-53
2022/05/26 01:29:41;;;;;;;;;0.00;0.00;;;;;17.26;55.86;101901.91;5078825;27;45448;-52
2022/05/26 01:32:41;;;;;;;;;0.00;0.00;;;;;17.27;55.61;101903.59;5078018;28;46077;-52
2022/05/26 01:35:31;;;;;;;;;0.00;0.00;;;;;17.30;55.58;101917.56;5038753;28;45738;-53
2022/05/26 01:38:16;;;;;;;;;2.00;0.00;;;;;17.33;56.05;101911.03;5055934;28;45538;-51
2022/05/26 01:40:55;;;;;;;;;0.00;0.00;;;;;17.34;55.89;101908.16;5055770;28;45436;-53
2022/05/26 01:43:45;;;;;;;;;0.00;0.00;;;;;17.37;55.68;101912.38;5055449;28;46262;-53
2022/05/26 01:46:10;;;;;;;;;2.00;0.00;;;;;17.35;56.04;101914.38;5055288;28;45461;-51
2022/05/26 01:48:50;;;;;;;;;0.00;0.00;;;;;17.34;56.04;101910.00;5055755;28;45339;-51
2022/05/26 01:51:31;;;;;;;;;0.00;0.00;;;;;17.33;56.16;101913.72;5055963;28;45426;-52
2022/05/26 01:54:19;;;;;;;;;1.00;0.00;;;;;17.28;55.78;101903.44;5055409;28;46400;-53
2022/05/26 01:57:06;;;;;;;;;0.00;0.00;;;;;17.31;55.89;101913.00;5055376;28;45348;-53
2022/05/26 01:59:36;;;;;;;;;0.00;0.00;;;;;17.33;55.36;101911.03;5055369;28;45533;-51
2022/05/26 02:02:07;;;;;;;;;1.50;0.00;;;;;17.26;56.00;101902.75;5055624;28;45345;-50
2022/05/26 02:04:54;;;;;;;;;0.00;0.00;;;;;17.28;55.80;101913.38;5055181;28;47127;-53
2022/05/26 02:07:28;;;;;;;;;0.00;0.00;;;;;17.30;56.57;101908.66;5055163;28;45576;-51
2022/05/26 02:09:57;;;;;;;;;1.50;0.00;;;;;17.27;56.02;101906.28;5055392;28;45328;-52
2022/05/26 02:12:46;;;;;;;;;3.67;2.00;;;;;17.21;55.91;101911.31;5070890;28;45413;-53
2022/05/26 02:15:16;;;;;;;;;0.00;0.00;;;;;17.17;56.63;101911.78;5076292;28;46181;-51
2022/05/26 02:17:50;;;;;;;;;2.33;0.67;;;;;17.11;57.13;101893.63;5077849;27;45475;-50
2022/05/26 02:20:28;;;;;;;;;2.33;2.00;;;;;17.09;57.20;101898.31;5077701;27;45349;-52
2022/05/26 02:23:01;;;;;;;;;0.33;0.33;;;;;17.15;57.21;101911.09;5078049;27;45499;-52
2022/05/26 02:25:28;;;;;;;;;2.33;1.33;;;;;17.15;57.48;101917.34;5076150;28;47485;-50
2022/05/26 02:27:56;;;;;;;;;1.00;1.00;;;;;17.13;56.61;101916.66;5077815;27;45363;-52
2022/05/26 02:30:36;;;;;;;;;1.00;1.00;;;;;17.10;56.75;101911.59;5077628;27;45264;-54
2022/05/26 02:33:05;;;;;;;;;1.50;0.50;;;;;17.14;57.43;101915.63;5077786;27;45253;-51
2022/05/26 02:35:33;;;;;;;;;0.00;0.00;;;;;17.11;57.34;101907.06;5077472;27;47197;-51
2022/05/26 02:38:02;;;;;;;;;1.00;1.00;;;;;16.98;57.47;101896.75;5077238;27;45477;-52
2022/05/26 02:40:28;;;;;;;;;1.00;1.00;;;;;17.10;57.97;101918.81;5077284;27;45405;-50
2022/05/26 02:43:10;;;;;;;;;2.33;2.00;;;;;17.10;57.08;101910.75;5077856;27;45317;-52
2022/05/26 02:45:57;;;;;;;;;1.00;1.00;;;;;17.09;56.75;101915.28;5076575;27;45568;-51
2022/05/26 02:49:02;;;;;;;;;1.00;1.00;;;;;17.06;57.04;101918.28;5077261;28;45390;-49
2022/05/26 02:51:49;;;;;;;;;1.67;0.67;;;;;17.09;57.51;101915.28;5077323;27;45221;-53
2022/05/26 02:54:46;;;;;;;;;0.67;0.00;;;;;17.01;57.45;101923.31;5077666;27;45479;-51
2022/05/26 02:57:27;;;;;;;;;0.67;0.67;;;;;16.99;56.69;101919.94;5077160;27;46068;-51
2022/05/26 03:00:14;;;;;;;;;0.33;0.00;;;;;16.95;57.37;101913.22;5076886;27;45431;-51
2022/05/26 03:02:45;;;;;;;;;3.00;1.00;;;;;16.94;57.67;101919.59;5077124;27;45217;-50
2022/05/26 03:05:10;;;;;;;;;2.67;1.00;;;;;16.93;57.52;101920.56;5077545;27;45463;-50
2022/05/26 03:07:40;;;;;;;;;0.00;0.00;;;;;16.93;58.83;101926.78;5076790;28;46964;-50
2022/05/26 03:10:07;;;;;;;;;1.67;0.67;;;;;16.92;58.71;101925.09;5077157;27;45374;-51
2022/05/26 03:12:34;;;;;;;;;1.00;1.00;;;;;16.81;59.40;101909.28;5077045;27;45321;-53
2022/05/26 03:15:01;;;;;;;;;3.00;1.00;;;;;16.89;59.35;101921.88;5077275;27;45353;-48
2022/05/26 03:17:26;;;;;;;;;2.33;1.00;;;;;16.90;58.10;101924.44;5076740;27;46215;-50
2022/05/26 03:19:52;;;;;;;;;0.33;0.33;;;;;16.88;58.54;101920.22;5076680;27;45414;-51
2022/05/26 03:22:18;;;;;;;;;1.33;0.00;;;;;16.85;58.77;101913.31;5076965;28;45328;-51
2022/05/26 03:24:43;;;;;;;;;1.00;1.00;;;;;16.87;59.90;101922.06;5077774;27;45233;-49
2022/05/26 03:27:09;;;;;;;;;3.00;1.00;;;;;16.81;59.63;101911.97;5080006;28;46454;-52
2022/05/26 03:29:34;;;;;;;;;1.67;1.00;;;;;16.92;59.60;101922.41;5080563;28;45383;-52
2022/05/26 03:32:00;;;;;;;;;0.67;0.67;;;;;16.94;59.85;101930.34;5080154;27;45377;-52
2022/05/26 03:42:39;;;;;;;;;2.33;1.00;;;;;16.88;58.74;101939.03;5080157;28;45272;-52
2022/05/26 03:45:06;;;;;;;;;4.00;1.33;;;;;16.78;58.44;101935.63;5080381;27;45201;-52
2022/05/26 03:47:32;;;;;;;;;0.00;0.00;;;;;16.79;59.11;101943.50;5079858;27;45225;-52
2022/05/26 03:49:57;;;;;;;;;2.00;0.00;;;;;16.75;59.02;101946.66;5080009;28;45454;-51
2022/05/26 03:52:23;;;;;;;;;1.67;0.00;;;;;16.74;60.30;101963.81;5080158;28;45371;-49
2022/05/26 03:54:49;;;;;;;;;1.00;0.00;;;;;16.70;61.21;101958.69;5080319;27;45328;-51
2022/05/26 03:57:20;;;;;;;;;1.00;0.00;;;;;16.73;62.54;101962.97;5079803;27;45322;-51
2022/05/26 03:59:45;;;;;;;;;5.00;1.00;;;;;16.74;62.98;101959.28;5079142;28;45527;-51
2022/05/26 04:02:11;;;;;;;;;0.00;0.00;;;;;16.72;64.03;101950.47;5079961;27;45239;-52
2022/05/26 04:04:36;;;;;;;;;1.00;1.00;;;;;16.58;63.70;101943.00;5080206;28;45218;-50
2022/05/26 04:07:02;;;;;;;;;1.00;1.00;;;;;16.67;63.67;101961.69;5079418;28;46343;-50
2022/05/26 04:09:27;;;;;;;;;2.00;1.00;;;;;16.62;64.01;101961.34;5079652;27;45320;-51
2022/05/26 04:11:53;;;;;;;;;2.00;1.00;;;;;16.55;64.77;101956.72;5079668;27;45475;-50
2022/05/26 04:14:19;;;;;;;;;1.67;0.00;;;;;16.54;64.16;101963.94;5078568;28;45379;-49
2022/05/26 04:16:45;;;;;;;;;1.67;0.67;;;;;16.56;63.77;101967.34;5079327;28;45829;-49
2022/05/26 04:19:10;;;;;;;;;1.00;1.00;;;;;16.55;63.80;101976.38;5079345;28;45319;-50
2022/05/26 04:21:36;;;;;;;;;3.00;1.00;;;;;16.54;63.83;101974.69;5079668;27;45806;-52
2022/05/26 04:24:01;;;;;;;;;1.00;1.00;;;;;16.54;63.78;101982.75;5079746;28;45241;-52
2022/05/26 04:26:26;;;;;;;;;1.00;0.67;;;;;16.53;63.89;101967.66;5079385;27;47141;-51
2022/05/26 04:28:52;;;;;;;;;0.67;0.33;;;;;16.53;63.21;101966.81;5079331;28;45371;-52
2022/05/26 04:31:17;;;;;;;;;2.33;1.67;;;;;16.48;62.10;101967.28;5079575;28;45268;-52
2022/05/26 04:33:44;;;;;;;;;0.00;0.00;;;;;16.51;62.90;101975.00;5079612;27;45410;-51
2022/05/26 04:36:09;;;;;;;;;2.00;0.00;;;;;16.40;62.36;101957.31;5079061;27;46254;-51
2022/05/26 04:38:35;;;;;;;;;2.33;1.00;;;;;16.56;62.06;101988.84;5078694;28;45367;-50
2022/05/26 04:41:03;;;;;;;;;0.67;0.67;;;;;16.53;61.82;101981.06;5079449;28;45258;-49
2022/05/26 04:43:30;;;;;;;;;1.00;1.00;;;;;16.59;61.93;101996.56;5079561;27;45367;-50
2022/05/26 04:45:57;;;;;;;;;1.33;0.67;;;;;16.61;61.17;101997.25;5079059;28;45606;-53
2022/05/26 04:48:22;;;;;;;;;0.33;0.33;;;;;16.62;61.73;101998.09;5078996;27;45492;-50
2022/05/26 04:50:51;;;;;;;;;2.00;2.00;;;;;16.63;61.16;101999.78;5079411;28;45391;-52
2022/05/26 04:53:18;;;;;;;;;1.00;1.00;;;;;16.61;60.43;102002.63;5079530;27;45238;-52
2022/05/26 04:55:43;;;;;;;;;1.00;1.00;;;;;16.63;60.03;102006.00;5078845;27;46271;-51
2022/05/26 04:58:09;;;;;;;;;0.67;0.67;;;;;16.63;61.13;102003.31;5079058;28;45297;-50
2022/05/26 05:00:35;;;;;;;;;1.00;1.00;;;;;16.64;61.16;102004.16;5079181;27;45299;-51
2022/05/26 05:03:00;;;;;;;;;1.00;1.00;;;;;16.67;60.06;102007.38;5079338;27;45436;-50
2022/05/26 05:05:26;;;;;;;;;0.00;0.00;;;;;16.67;60.40;102007.38;5078962;28;45379;-50
2022/05/26 05:07:51;;;;;;;;;0.67;0.67;;;;;16.70;60.66;102014.28;5078432;28;45342;-51
2022/05/26 05:10:17;;;;;;;;;0.00;0.00;;;;;16.71;60.52;102006.06;5079237;27;45401;-51
2022/05/26 05:12:43;;;;;;;;;0.00;0.00;;;;;16.75;60.26;102009.31;5079169;28;45250;-51
2022/05/26 05:15:23;;;;;;;;;1.00;1.00;;;;;16.77;59.99;102011.84;5078733;28;46380;-50
2022/05/26 05:17:49;;;;;;;;;1.00;1.00;;;;;16.76;60.67;102005.63;5078888;27;45471;-52
2022/05/26 05:20:14;;;;;;;;;0.00;0.00;;;;;16.81;59.69;102015.91;5078628;28;45502;-51
2022/05/26 05:22:49;;;;;;;;;2.00;0.00;;;;;16.76;59.87;102016.38;5078814;28;45438;-52
2022/05/26 05:25:19;;;;;;;;;0.67;0.67;;;;;16.81;59.74;102023.97;5078565;27;46400;-52
2022/05/26 05:27:48;;;;;;;;;0.33;0.33;;;;;16.82;59.88;102023.81;5078375;27;45328;-52
2022/05/26 05:30:25;;;;;;;;;1.00;0.00;;;;;16.86;60.11;102018.97;5078336;27;45471;-52
2022/05/26 05:32:59;;;;;;;;;1.00;1.00;;;;;16.89;59.81;102021.34;5078897;27;45261;-50
2022/05/26 05:35:31;;;;;;;;;1.00;1.00;;;;;16.93;60.08;102030.78;5078311;27;45391;-51
2022/05/26 05:37:57;;;;;;;;;1.00;0.00;;;;;16.91;59.18;102030.94;5078218;27;45417;-51
2022/05/26 05:40:22;;;;;;;;;1.00;1.00;;;;;16.87;59.15;102016.13;5078211;27;45511;-51
2022/05/26 05:42:48;;;;;;;;;1.67;1.00;;;;;16.91;59.65;102033.63;5078492;27;45381;-51
2022/05/26 05:45:13;;;;;;;;;0.00;0.00;;;;;16.94;59.43;102033.31;5078130;28;45406;-52
2022/05/26 05:47:39;;;;;;;;;0.67;0.67;;;;;16.95;59.22;102036.84;5077976;27;45311;-52
2022/05/26 05:50:05;;;;;;;;;2.33;0.00;;;;;16.91;58.98;102022.03;5077213;27;45242;-51
2022/05/26 05:52:30;;;;;;;;;0.00;0.00;;;;;17.05;59.08;102036.75;5078256;27;45289;-51
2022/05/26 05:54:56;;;;;;;;;1.00;1.00;;;;;17.03;58.80;102028.84;5077965;28;46263;-50
2022/05/26 05:57:22;;;;;;;;;0.00;0.00;;;;;17.14;58.90;102039.31;5078025;27;45340;-52
2022/05/26 05:59:47;;;;;;;;;1.00;1.00;;;;;17.14;58.71;102027.72;5078040;27;45431;-52
2022/05/26 06:02:12;;;;;;;;;12.00;6.33;;;;;17.25;58.50;102048.97;5076872;28;45244;-52
2022/05/26 06:04:44;;;;;;;;;0.67;0.67;;;;;17.33;58.07;102045.50;5077644;28;45991;-52
2022/05/26 06:07:14;;;;;;;;;0.00;0.00;;;;;17.34;57.97;102042.63;5077782;28;45337;-50
2022/05/26 06:09:40;;;;;;;;;1.00;0.00;;;;;17.36;58.00;102045.16;5078024;28;45792;-52
2022/05/26 06:12:06;;;;;;;;;2.00;1.00;;;;;17.38;57.82;102049.38;5078164;28;45427;-53
2022/05/26 06:14:31;;;;;;;;;1.00;0.00;;;;;17.41;57.36;102050.94;5077693;27;45505;-51
2022/05/26 06:16:56;;;;;;;;;1.00;0.00;;;;;17.39;57.32;102051.06;5077595;27;45281;-52
2022/05/26 06:19:22;;;;;;;;;3.00;1.00;;;;;17.38;57.45;102053.94;5077794;27;45421;-51
2022/05/26 06:21:48;;;;;;;;;2.00;0.67;;;;;17.40;57.56;102057.28;5077781;27;45362;-49
2022/05/26 06:24:13;;;;;;;;;0.33;0.00;;;;;17.45;57.58;102065.75;5077609;28;45412;-53
2022/05/26 06:26:38;;;;;;;;;1.33;0.00;;;;;17.53;57.28;102063.09;5077715;27;45323;-50
2022/05/26 06:37:17;;;;;;;;;0.00;0.00;;;;;17.74;56.53;102081.56;5077497;28;45202;-51
2022/05/26 06:39:44;;;;;;;;;0.00;0.00;;;;;17.81;56.47;102077.22;5077676;27;45171;-56
2022/05/26 06:42:10;;;;;;;;;1.33;0.00;;;;;17.94;55.94;102087.53;5077758;27;45573;-51
2022/05/26 06:44:45;;;;;;;;;0.00;0.00;;;;;18.14;55.54;102078.19;5077188;27;46540;-51
2022/05/26 06:47:14;;;;;;;;;0.25;0.00;;;;;18.41;54.85;102095.06;5077397;28;45294;-51
2022/05/26 06:49:41;;;;;;;;;1.00;0.00;;;;;18.46;54.49;102098.13;5077211;27;45497;-51
2022/05/26 06:52:07;;;;;;;;;2.00;1.00;;;;;18.37;54.79;102096.41;5077783;27;45481;-50
2022/05/26 06:54:36;;;;;;;;;0.50;0.00;;;;;18.28;55.37;102100.09;5077060;27;47764;-50
2022/05/26 06:57:02;;;;;;;;;0.00;0.00;;;;;18.20;56.27;102100.91;5077391;27;45316;-53
2022/05/26 06:59:27;;;;;;;;;1.25;0.00;;;;;18.17;57.02;102102.09;5077065;27;45414;-50
2022/05/26 07:01:53;;;;;;;;;2.00;0.75;;;;;18.13;57.81;102086.44;5077465;28;45283;-49
2022/05/26 07:04:19;;;;;;;;;1.50;0.00;;;;;18.31;57.90;102108.69;5077156;28;45337;-52
2022/05/26 07:06:49;;;;;;;;;0.75;0.75;;;;;18.48;57.52;102098.81;5077019;28;45400;-48
2022/05/26 07:09:15;;;;;;;;;3.75;1.00;;;;;19.45;55.64;102107.91;5077512;27;45496;-51
2022/05/26 07:11:40;;;;;;;;;0.00;0.00;;;;;23.08;48.46;102097.75;5077660;27;45492;-52
2022/05/26 07:14:07;;;;;;;;;0.00;0.00;;;;;25.39;44.00;102098.78;5076999;28;47111;-52
2022/05/26 07:16:33;;;;;;;;;1.40;0.60;;;;;25.23;41.94;102091.06;5077190;27;45299;-52
2022/05/26 07:18:58;;;;;;;;;1.50;0.00;;;;;24.36;43.06;102098.28;5077018;27;45380;-51
2022/05/26 07:21:23;;;;;;;;;0.75;0.75;;;;;23.61;44.08;102102.72;5077247;27;45349;-50
2022/05/26 07:23:49;;;;;;;;;0.25;0.25;;;;;23.01;44.99;102117.75;5076838;28;45973;-52
2022/05/26 07:26:14;;;;;;;;;2.00;0.00;;;;;22.38;45.62;102112.09;5076928;28;45230;-53
2022/05/26 07:28:40;;;;;;;;;0.00;0.00;;;;;21.82;47.26;102133.44;5076336;27;45262;-54
2022/05/26 07:31:07;;;;;;;;;0.00;0.00;;;;;21.18;48.73;102134.72;5077260;27;45317;-51
2022/05/26 07:33:33;;;;;;;;;1.25;0.00;;;;;20.70;49.61;102129.72;5076676;27;47291;-50
2022/05/26 07:35:59;;;;;;;;;0.50;0.00;;;;;20.30;50.24;102131.59;5076863;27;45288;-51
2022/05/26 07:41:19;;;;;;;;;2.00;0.00;;;;;19.84;51.41;102135.00;5076910;28;45229;-52
2022/05/26 07:43:49;;;;;;;;;2.00;0.00;;;;;19.77;50.89;102139.44;5076671;27;46124;-50
2022/05/26 07:46:16;;;;;;;;;0.75;0.75;;;;;19.77;50.82;102120.53;5076726;27;45309;-51
2022/05/26 07:48:42;;;;;;;;;0.50;0.50;;;;;20.21;50.42;102127.28;5076733;28;45201;-53
2022/05/26 07:51:07;;;;;;;;;2.00;0.00;;;;;20.76;48.66;102140.66;5076831;28;45638;-52
2022/05/26 07:53:33;;;;;;;;;0.00;0.00;;;;;21.49;47.98;102141.94;5076652;27;45386;-51
2022/05/26 07:56:00;;;;;;;;;1.00;0.00;;;;;21.53;46.82;102143.25;5076488;28;45429;-52
2022/05/26 07:58:25;;;;;;;;;0.50;0.00;;;;;21.14;47.61;102151.50;5076594;28;45389;-48
2022/05/26 08:00:53;;;;;;;;;0.00;0.00;;;;;20.63;48.92;102145.81;5075331;28;45284;-50
2022/05/26 08:03:18;;;;;;;;;0.00;0.00;;;;;20.19;51.85;102159.88;5076406;28;46507;-53
2022/05/26 08:05:44;;;;;;;;;0.00;0.00;;;;;19.88;52.47;102176.00;5076105;27;45332;-49
2022/05/26 08:08:10;;;;;;;;;0.00;0.00;;;;;19.54;53.57;102171.66;5076578;28;45463;-51
2022/05/26 08:10:35;;;;;;;;;0.00;0.00;;;;;19.51;54.14;102179.25;5076754;28;45205;-49
2022/05/26 08:13:01;;;;;;;;;0.00;0.00;;;;;19.50;53.76;102178.41;5078501;28;45447;-50
2022/05/26 08:15:27;;;;;;;;;0.00;0.00;;;;;19.59;54.08;102169.31;5079863;28;45310;-51
2022/05/26 08:17:52;;;;;;;;;0.00;0.00;;;;;19.65;53.03;102160.56;5080069;27;45342;-51
2022/05/26 08:20:18;;;;;;;;;0.00;0.00;;;;;20.42;52.19;102176.13;5079708;28;45248;-49
2022/05/26 08:22:43;;;;;;;;;0.25;0.25;;;;;22.46;48.06;102173.47;5079948;27;46398;-48
2022/05/26 08:25:09;;;;;;;;;1.75;0.00;;;;;22.69;47.46;102176.03;5079707;28;45509;-49
2022/05/26 08:27:34;;;;;;;;;2.75;1.00;;;;;22.08;48.20;102179.00;5079786;27;45365;-47
2022/05/26 08:30:00;;;;;;;;;3.00;2.50;;;;;21.51;49.48;102187.75;5079824;27;45407;-48
2022/05/26 08:32:26;;;;;;;;;4.00;2.75;;;;;20.95;50.87;102190.72;5079395;28;46200;-51
2022/05/26 08:35:06;;;;;;;;;3.00;3.00;;;;;20.38;52.22;102189.16;5079643;27;45226;-49
2022/05/26 08:37:31;;;;;;;;;6.25;4.00;;;;;20.07;53.21;102208.03;5079568;27;45217;-53
2022/05/26 08:39:57;;;;;;;;;5.00;3.75;;;;;19.75;54.48;102200.00;5079856;28;45352;-51
2022/05/26 08:42:31;;;;;;;;;4.25;4.25;;;;;19.51;55.02;102203.53;5079303;28;46986;-52
2022/05/26 08:45:03;;;;;;;;;4.00;3.75;;;;;19.34;55.69;102208.09;5078247;28;45586;-50
2022/05/26 08:47:34;;;;;;;;;6.50;5.00;;;;;19.23;55.80;102198.50;5079570;27;45347;-49
2022/05/26 08:50:09;;;;;;;;;3.25;3.00;;;;;19.30;55.67;102218.41;5079548;27;45561;-56
2022/05/26 08:52:49;;;;;;;;;5.00;4.50;;;;;19.24;56.23;102218.22;5079439;27;46204;-54
2022/05/26 08:55:23;;;;;;;;;4.00;4.00;;;;;19.09;56.44;102221.59;5079319;27;45350;-55
2022/05/26 08:58:18;;;;;;;;;5.50;3.00;;;;;19.00;55.97;102213.66;5085101;27;45434;-52
2022/05/26 09:00:47;;;;;;;;;4.25;1.25;;;;;19.09;55.57;102218.06;5076796;27;45476;-48
2022/05/26 09:03:34;;;;;;;;;2.00;2.00;;;;;19.32;55.02;102220.94;5078415;27;45401;-49
2022/05/26 09:06:07;;;;;;;;;2.50;2.50;;;;;19.44;54.59;102217.72;5078264;27;45567;-57
2022/05/26 09:14:19;;;;;;;;;1.25;1.25;;;;;26.01;42.12;102206.44;5078348;27;45990;-51
2022/05/26 09:16:45;;;;;;;;;0.80;0.80;;;;;28.20;37.39;102198.63;5078840;27;45383;-47
2022/05/26 09:19:12;;;;;;;;;3.00;2.50;;;;;29.66;35.28;102200.06;5078685;28;45260;-49
2022/05/26 09:21:38;;;;;;;;;6.00;1.80;;;;;31.27;32.06;102194.50;5078813;27;45729;-50
2022/05/26 09:24:30;;;;;;;;;1.00;1.00;;;;;30.26;33.55;102196.22;5078152;27;46221;-55
2022/05/26 09:27:04;;;;;;;;;0.80;0.80;;;;;29.38;34.00;102198.03;5078644;28;45223;-53
2022/05/26 09:29:32;;;;;;;;;1.20;0.20;;;;;30.15;33.03;102188.81;5098327;27;45465;-52
2022/05/26 09:32:00;;;;;;;;;1.80;1.00;;;;;30.90;32.09;102202.41;5099157;27;45455;-53
2022/05/26 09:34:28;;;;;;;;;1.00;1.00;;;;;30.03;32.68;102199.78;5098822;27;46948;-53
2022/05/26 09:36:59;;;;;;;;;2.00;2.00;;;;;28.88;33.42;102208.50;5098703;27;45448;-53
2022/05/26 09:39:39;;;;;;;;;1.40;1.40;;;;;27.57;35.44;102207.91;5098853;27;45339;-57
2022/05/26 09:42:06;;;;;;;;;2.00;1.00;;;;;26.54;36.50;102225.38;5098904;27;45455;-52
2022/05/26 09:44:44;;;;;;;;;0.60;0.60;;;;;25.62;38.66;102231.88;5098557;27;46103;-51
2022/05/26 09:47:32;;;;;;;;;0.40;0.40;;;;;24.77;39.59;102227.94;5098613;27;45392;-49
2022/05/26 09:50:00;;;;;;;;;1.00;1.00;;;;;24.22;40.17;102238.78;5114550;27;45431;-55
2022/05/26 09:52:30;;;;;;;;;2.00;0.60;;;;;23.70;41.29;102239.28;5098774;27;45399;-51
2022/05/26 09:55:07;;;;;;;;;3.20;2.60;;;;;23.33;42.01;102236.63;5097112;27;47491;-55
2022/05/26 09:57:33;;;;;;;;;1.00;1.00;;;;;23.07;42.32;102241.81;5114162;27;45460;-54
2022/05/26 09:59:58;;;;;;;;;1.00;1.00;;;;;23.08;42.34;102235.34;5098585;27;45396;-51
2022/05/26 10:02:33;;;;;;;;;0.25;0.25;;;;;23.35;41.88;102241.88;5098718;27;45392;-51
2022/05/26 10:05:30;;;;;;;;;1.40;1.40;;;;;24.29;40.73;102236.09;5097803;27;45401;-52
2022/05/26 10:08:12;;;;;;;;;3.60;2.00;;;;;25.49;38.70;102234.56;5098406;27;45366;-51
2022/05/26 10:10:44;;;;;;;;;2.00;0.80;;;;;28.19;34.72;102232.50;5098618;27;45365;-51
2022/05/26 10:13:34;;;;;;;;;3.80;1.60;;;;;28.82;33.72;102232.16;5098551;27;45340;-52
2022/05/26 10:16:25;;;;;;;;;1.80;0.40;;;;;30.63;31.24;102226.84;5098205;27;46603;-53
2022/05/26 10:19:29;;;;;;;;;0.80;0.80;;;;;33.17;27.65;102217.88;5075250;28;45428;-53
2022/05/26 10:22:06;;;;;;;;;1.00;1.00;;;;;31.73;28.94;102224.66;4975604;28;45509;-56
2022/05/26 10:24:37;;;;;;;;;11.80;10.40;;;;;30.39;31.03;102233.53;4975735;28;45457;-54
2022/05/26 10:27:19;;;;;;;;;3.60;1.60;;;;;28.94;32.69;102230.28;4975545;28;47241;-54
2022/05/26 10:30:10;;;;;;;;;2.60;2.00;;;;;27.57;34.15;102235.25;4975470;28;45277;-51
2022/05/26 10:32:53;;;;;;;;;2.80;1.40;;;;;26.98;35.06;102242.78;4975757;28;45422;-52
2022/05/26 10:35:38;;;;;;;;;1.80;1.80;;;;;26.54;35.26;102236.28;4975203;28;45304;-50
2022/05/26 10:38:12;;;;;;;;;2.20;1.80;;;;;26.43;35.31;102238.84;4975493;28;45340;-52
2022/05/26 10:40:46;;;;;;;;;1.80;1.80;;;;;29.12;32.65;102231.31;4975553;28;45273;-54
2022/05/26 10:43:21;;;;;;;;;1.00;1.00;;;;;31.00;29.09;102221.81;4975613;28;45432;-54
2022/05/26 10:45:48;;;;;;;;;6.20;5.80;;;;;32.09;27.68;102227.94;4975726;28;45404;-51
2022/05/26 10:48:43;;;;;;;;;5.40;4.20;;;;;30.66;28.58;102220.88;4957084;28;45912;-49
2022/05/26 10:51:15;;;;;;;;;2.40;1.00;;;;;30.22;29.36;102214.25;4950219;28;45511;-54
2022/05/26 10:53:45;;;;;;;;;1.00;1.00;;;;;29.06;30.27;102225.72;4955958;28;45460;-52
2022/05/26 10:56:31;;;;;;;;;2.40;1.40;;;;;27.69;32.56;102233.44;4980543;28;45422;-50
2022/05/26 10:59:08;;;;;;;;;1.80;0.40;;;;;26.76;34.20;102234.09;5031497;28;45530;-54
2022/05/26 11:01:39;;;;;;;;;3.40;2.00;;;;;26.16;35.68;102235.34;5077091;27;45339;-55
2022/05/26 11:04:26;;;;;;;;;2.00;2.00;;;;;26.40;35.31;102231.91;5077298;27;45384;-53
2022/05/26 11:06:56;;;;;;;;;4.40;4.00;;;;;26.45;35.58;102232.13;5077042;27;45439;-56
2022/05/26 11:09:41;;;;;;;;;1.80;1.80;;;;;26.61;35.10;102234.38;5076897;27;46092;-51
2022/05/26 11:12:17;;;;;;;;;1.00;1.00;;;;;26.68;34.83;102228.88;5072694;28;45313;-48
2022/05/26 11:17:56;;;;;;;;;3.60;3.60;;;;;26.70;35.20;102225.94;5034428;28;45375;-55
2022/05/26 11:20:29;;;;;;;;;9.60;8.80;;;;;26.59;34.82;102222.03;5033878;28;47283;-53
2022/05/26 11:23:03;;;;;;;;;2.40;1.40;;;;;26.42;34.75;102220.78;5034086;28;45361;-49
2022/05/26 11:25:34;;;;;;;;;0.80;0.80;;;;;26.25;34.32;102217.69;5034452;28;45315;-55
2022/05/26 11:28:11;;;;;;;;;1.00;0.00;;;;;26.07;35.20;102215.66;5017849;28;45335;-55
2022/05/26 11:36:54;;;;;;;;;1.40;1.40;;;;;25.58;35.82;102209.66;5034087;28;45563;-48
2022/05/26 11:39:25;;;;;;;;;1.60;1.60;;;;;25.38;36.05;102200.63;5034018;28;45636;-55
2022/05/26 11:42:08;;;;;;;;;2.40;1.20;;;;;25.05;36.88;102209.59;5032641;28;45523;-54
2022/05/26 11:44:53;;;;;;;;;1.80;0.80;;;;;24.71;37.03;102202.41;5033789;28;45447;-49
2022/05/26 11:47:32;;;;;;;;;0.40;0.40;;;;;24.71;37.16;102205.13;5046931;28;45381;-50
2022/05/26 11:49:57;;;;;;;;;4.00;1.60;;;;;24.77;37.56;102206.16;5058039;28;45455;-53
2022/05/26 11:52:34;;;;;;;;;1.75;0.50;;;;;24.95;37.04;102209.16;5057380;28;46142;-50
2022/05/26 11:55:02;;;;;;;;;0.60;0.60;;;;;25.33;36.42;102206.72;5082228;27;45364;-46
2022/05/26 11:57:48;;;;;;;;;1.60;0.80;;;;;25.65;36.13;102209.63;5100579;27;45301;-53
2022/05/26 12:00:40;;;;;;;;;3.40;0.20;;;;;25.70;35.63;102203.53;5100780;27;45525;-52
2022/05/26 12:03:21;;;;;;;;;1.00;1.00;;;;;25.58;35.74;102201.47;5099961;27;47194;-52
2022/05/26 12:05:55;;;;;;;;;1.20;1.00;;;;;25.81;36.52;102206.50;5099859;27;45346;-53
2022/05/26 12:08:28;;;;;;;;;0.00;0.00;;;;;25.83;37.00;102209.00;5100284;27;45477;-55
2022/05/26 12:10:59;;;;;;;;;1.00;1.00;;;;;25.95;36.88;102207.28;5100508;27;45447;-51
2022/05/26 12:13:27;;;;;;;;;1.80;1.60;;;;;26.04;36.90;102207.91;5100017;27;47008;-51
2022/05/26 12:16:08;;;;;;;;;2.00;2.00;;;;;26.18;36.31;102203.25;5100226;27;45312;-52
2022/05/26 12:18:39;;;;;;;;;2.00;1.00;;;;;26.18;36.63;102201.38;5100245;27;45335;-49